sensor_id;sensor_type;location;lat;lon;timestamp;temperature;humidity
60039;DHT22;45916;52.734;6.544;2023-02-25T00:01:17;4.50;99.90
60039;DHT22;45916;52.734;6.544;2023-02-25T00:03:44;4.60;99.90
60039;DHT22;45916;52.734;6.544;2023-02-25T00:06:11;4.50;99.90
60039;DHT22;45916;52.734;6.544;2023-02-25T00:08:38;4.50;99.90
60039;DHT22;45916;52.734;6.544;2023-02-25T00:11:05;4.60;99.90
60039;DHT22;45916;52.734;6.544;2023-02-25T00:13:32;4.60;99.90
60039;DHT22;45916;52.734;6.544;2023-02-25T00:15:58;4.60;99.90
60039;DHT22;45916;52.734;6.544;2023-02-25T00:18:25;4.60;99.90
60039;DHT22;45916;52.734;6.544;2023-02-25T00:20:51;4.60;99.90
60039;DHT22;45916;52.734;6.544;2023-02-25T00:23:16;4.60;99.90
60039;DHT22;45916;52.734;6.544;2023-02-25T00:25:42;4.50;99.90
60039;DHT22;45916;52.734;6.544;2023-02-25T00:28:08;4.50;99.90
60039;DHT22;45916;52.734;6.544;2023-02-25T00:30:34;4.40;99.90
60039;DHT22;45916;52.734;6.544;2023-02-25T00:33:00;4.40;99.90
60039;DHT22;45916;52.734;6.544;2023-02-25T00:35:26;4.30;99.90
60039;DHT22;45916;52.734;6.544;2023-02-25T00:37:52;4.20;99.90
60039;DHT22;45916;52.734;6.544;2023-02-25T00:40:18;4.10;99.90
60039;DHT22;45916;52.734;6.544;2023-02-25T00:42:43;4.10;99.90
60039;DHT22;45916;52.734;6.544;2023-02-25T00:45:10;4.10;99.90
60039;DHT22;45916;52.734;6.544;2023-02-25T00:47:37;4.20;99.90
60039;DHT22;45916;52.734;6.544;2023-02-25T00:50:05;4.20;99.90
60039;DHT22;45916;52.734;6.544;2023-02-25T00:52:32;4.30;99.90
60039;DHT22;45916;52.734;6.544;2023-02-25T00:54:58;4.30;99.90
60039;DHT22;45916;52.734;6.544;2023-02-25T00:57:24;4.30;99.90
60039;DHT22;45916;52.734;6.544;2023-02-25T00:59:49;4.40;99.90
60039;DHT22;45916;52.734;6.544;2023-02-25T01:02:15;4.50;99.90
60039;DHT22;45916;52.734;6.544;2023-02-25T01:04:41;4.40;99.90
60039;DHT22;45916;52.734;6.544;2023-02-25T01:07:07;4.40;99.90
60039;DHT22;45916;52.734;6.544;2023-02-25T01:09:32;4.40;99.90
60039;DHT22;45916;52.734;6.544;2023-02-25T01:11:58;4.30;99.90
60039;DHT22;45916;52.734;6.544;2023-02-25T01:14:24;4.20;99.90
60039;DHT22;45916;52.734;6.544;2023-02-25T01:16:51;4.00;99.90
60039;DHT22;45916;52.734;6.544;2023-02-25T01:19:21;3.90;99.90
60039;DHT22;45916;52.734;6.544;2023-02-25T01:21:49;3.80;99.90
60039;DHT22;45916;52.734;6.544;2023-02-25T01:24:19;3.80;99.90
60039;DHT22;45916;52.734;6.544;2023-02-25T01:26:47;3.70;99.90
60039;DHT22;45916;52.734;6.544;2023-02-25T01:29:17;3.80;99.90
60039;DHT22;45916;52.734;6.544;2023-02-25T01:31:44;3.80;99.90
60039;DHT22;45916;52.734;6.544;2023-02-25T01:34:13;3.90;99.90
60039;DHT22;45916;52.734;6.544;2023-02-25T01:36:39;4.00;99.90
60039;DHT22;45916;52.734;6.544;2023-02-25T01:39:06;4.00;99.90
60039;DHT22;45916;52.734;6.544;2023-02-25T01:41:33;4.00;99.90
60039;DHT22;45916;52.734;6.544;2023-02-25T01:46:41;4.10;99.90
60039;DHT22;45916;52.734;6.544;2023-02-25T01:49:22;4.20;99.90
60039;DHT22;45916;52.734;6.544;2023-02-25T01:51:53;4.20;99.90
60039;DHT22;45916;52.734;6.544;2023-02-25T01:54:21;4.30;99.90
60039;DHT22;45916;52.734;6.544;2023-02-25T01:56:50;4.20;99.90
60039;DHT22;45916;52.734;6.544;2023-02-25T01:59:17;4.20;99.90
60039;DHT22;45916;52.734;6.544;2023-02-25T02:01:45;4.10;99.90
60039;DHT22;45916;52.734;6.544;2023-02-25T02:04:12;4.10;99.90
60039;DHT22;45916;52.734;6.544;2023-02-25T02:06:45;4.10;99.90
60039;DHT22;45916;52.734;6.544;2023-02-25T02:09:14;4.10;99.90
60039;DHT22;45916;52.734;6.544;2023-02-25T02:11:40;4.10;99.90
60039;DHT22;45916;52.734;6.544;2023-02-25T02:14:09;4.10;99.90
60039;DHT22;45916;52.734;6.544;2023-02-25T02:22:31;4.10;99.90
60039;DHT22;45916;52.734;6.544;2023-02-25T02:25:04;4.10;99.90
60039;DHT22;45916;52.734;6.544;2023-02-25T02:43:01;4.20;99.90
60039;DHT22;45916;52.734;6.544;2023-02-25T02:45:44;4.30;99.90
60039;DHT22;45916;52.734;6.544;2023-02-25T02:48:19;4.20;99.90
60039;DHT22;45916;52.734;6.544;2023-02-25T02:51:01;4.20;99.90
60039;DHT22;45916;52.734;6.544;2023-02-25T02:53:35;4.20;99.90
60039;DHT22;45916;52.734;6.544;2023-02-25T02:56:03;4.40;99.90
60039;DHT22;45916;52.734;6.544;2023-02-25T02:58:37;4.50;99.90
60039;DHT22;45916;52.734;6.544;2023-02-25T03:01:13;4.40;99.90
60039;DHT22;45916;52.734;6.544;2023-02-25T03:03:45;4.40;99.90
60039;DHT22;45916;52.734;6.544;2023-02-25T03:06:17;4.40;99.90
60039;DHT22;45916;52.734;6.544;2023-02-25T03:08:53;4.30;99.90
60039;DHT22;45916;52.734;6.544;2023-02-25T03:11:20;4.30;99.90
60039;DHT22;45916;52.734;6.544;2023-02-25T03:13:46;4.30;99.90
60039;DHT22;45916;52.734;6.544;2023-02-25T03:16:19;4.40;99.90
60039;DHT22;45916;52.734;6.544;2023-02-25T03:18:58;4.30;99.90
60039;DHT22;45916;52.734;6.544;2023-02-25T03:21:33;4.30;99.90
60039;DHT22;45916;52.734;6.544;2023-02-25T03:24:01;4.30;99.90
60039;DHT22;45916;52.734;6.544;2023-02-25T03:26:31;4.40;99.90
60039;DHT22;45916;52.734;6.544;2023-02-25T03:28:58;4.30;99.90
60039;DHT22;45916;52.734;6.544;2023-02-25T03:31:28;4.30;99.90
60039;DHT22;45916;52.734;6.544;2023-02-25T03:34:12;4.30;99.90
60039;DHT22;45916;52.734;6.544;2023-02-25T03:36:43;4.30;99.90
60039;DHT22;45916;52.734;6.544;2023-02-25T03:39:26;4.30;99.90
60039;DHT22;45916;52.734;6.544;2023-02-25T03:41:54;4.30;99.90
60039;DHT22;45916;52.734;6.544;2023-02-25T03:44:26;4.40;99.90
60039;DHT22;45916;52.734;6.544;2023-02-25T03:46:54;4.50;99.90
60039;DHT22;45916;52.734;6.544;2023-02-25T03:49:34;4.60;99.90
60039;DHT22;45916;52.734;6.544;2023-02-25T03:52:05;4.60;99.90
60039;DHT22;45916;52.734;6.544;2023-02-25T03:54:33;4.40;99.90
60039;DHT22;45916;52.734;6.544;2023-02-25T03:56:59;4.20;99.90
60039;DHT22;45916;52.734;6.544;2023-02-25T03:59:26;4.00;99.90
60039;DHT22;45916;52.734;6.544;2023-02-25T04:01:53;3.80;99.90
60039;DHT22;45916;52.734;6.544;2023-02-25T04:04:20;3.70;99.90
60039;DHT22;45916;52.734;6.544;2023-02-25T04:06:45;3.90;99.90
60039;DHT22;45916;52.734;6.544;2023-02-25T04:09:35;3.90;99.90
60039;DHT22;45916;52.734;6.544;2023-02-25T04:12:06;4.00;99.90
60039;DHT22;45916;52.734;6.544;2023-02-25T04:14:32;4.00;99.90
60039;DHT22;45916;52.734;6.544;2023-02-25T04:16:58;4.10;99.90
60039;DHT22;45916;52.734;6.544;2023-02-25T04:19:23;4.20;99.90
60039;DHT22;45916;52.734;6.544;2023-02-25T04:21:49;4.40;99.90
60039;DHT22;45916;52.734;6.544;2023-02-25T04:24:15;4.30;99.90
60039;DHT22;45916;52.734;6.544;2023-02-25T04:26:40;4.30;99.90
60039;DHT22;45916;52.734;6.544;2023-02-25T04:29:06;4.20;99.90
60039;DHT22;45916;52.734;6.544;2023-02-25T04:31:32;4.20;99.90
60039;DHT22;45916;52.734;6.544;2023-02-25T04:33:58;4.20;99.90
60039;DHT22;45916;52.734;6.544;2023-02-25T04:38:51;4.30;99.90
60039;DHT22;45916;52.734;6.544;2023-02-25T04:41:17;4.20;99.90
60039;DHT22;45916;52.734;6.544;2023-02-25T04:43:42;4.30;99.90
60039;DHT22;45916;52.734;6.544;2023-02-25T04:46:10;4.30;99.90
60039;DHT22;45916;52.734;6.544;2023-02-25T04:48:36;4.20;99.90
60039;DHT22;45916;52.734;6.544;2023-02-25T04:51:04;4.30;99.90
60039;DHT22;45916;52.734;6.544;2023-02-25T04:53:31;4.30;99.90
60039;DHT22;45916;52.734;6.544;2023-02-25T04:56:00;4.20;99.90
60039;DHT22;45916;52.734;6.544;2023-02-25T04:58:26;4.10;99.90
60039;DHT22;45916;52.734;6.544;2023-02-25T05:00:51;4.10;99.90
60039;DHT22;45916;52.734;6.544;2023-02-25T05:03:17;4.10;99.90
60039;DHT22;45916;52.734;6.544;2023-02-25T05:05:43;4.10;99.90
60039;DHT22;45916;52.734;6.544;2023-02-25T05:08:09;4.10;99.90
60039;DHT22;45916;52.734;6.544;2023-02-25T05:10:34;4.10;99.90
60039;DHT22;45916;52.734;6.544;2023-02-25T05:13:00;4.20;99.90
60039;DHT22;45916;52.734;6.544;2023-02-25T05:15:26;4.30;99.90
60039;DHT22;45916;52.734;6.544;2023-02-25T05:17:52;4.20;99.90
60039;DHT22;45916;52.734;6.544;2023-02-25T05:20:17;4.40;99.90
60039;DHT22;45916;52.734;6.544;2023-02-25T05:22:43;4.40;99.90
60039;DHT22;45916;52.734;6.544;2023-02-25T05:25:09;4.40;99.90
60039;DHT22;45916;52.734;6.544;2023-02-25T05:27:35;4.40;99.90
60039;DHT22;45916;52.734;6.544;2023-02-25T05:30:01;4.40;99.90
60039;DHT22;45916;52.734;6.544;2023-02-25T05:32:29;4.30;99.90
60039;DHT22;45916;52.734;6.544;2023-02-25T05:34:54;4.30;99.90
60039;DHT22;45916;52.734;6.544;2023-02-25T05:37:20;4.20;99.90
60039;DHT22;45916;52.734;6.544;2023-02-25T05:39:45;4.20;99.90
60039;DHT22;45916;52.734;6.544;2023-02-25T05:42:11;4.20;99.90
60039;DHT22;45916;52.734;6.544;2023-02-25T05:44:37;4.20;99.90
60039;DHT22;45916;52.734;6.544;2023-02-25T05:47:03;4.20;99.90
60039;DHT22;45916;52.734;6.544;2023-02-25T05:49:28;4.10;99.90
60039;DHT22;45916;52.734;6.544;2023-02-25T05:51:54;4.00;99.90
60039;DHT22;45916;52.734;6.544;2023-02-25T05:54:20;4.00;99.90
60039;DHT22;45916;52.734;6.544;2023-02-25T05:56:45;4.00;99.90
60039;DHT22;45916;52.734;6.544;2023-02-25T05:59:14;4.10;99.90
60039;DHT22;45916;52.734;6.544;2023-02-25T06:01:42;3.90;99.90
60039;DHT22;45916;52.734;6.544;2023-02-25T06:04:08;3.90;99.90
60039;DHT22;45916;52.734;6.544;2023-02-25T06:06:34;3.90;99.90
60039;DHT22;45916;52.734;6.544;2023-02-25T06:08:59;3.80;99.90
60039;DHT22;45916;52.734;6.544;2023-02-25T06:11:27;3.80;99.90
60039;DHT22;45916;52.734;6.544;2023-02-25T06:13:55;3.70;99.90
60039;DHT22;45916;52.734;6.544;2023-02-25T06:16:22;3.80;99.90
60039;DHT22;45916;52.734;6.544;2023-02-25T06:18:50;3.70;99.90
60039;DHT22;45916;52.734;6.544;2023-02-25T06:21:16;3.60;99.90
60039;DHT22;45916;52.734;6.544;2023-02-25T06:23:43;3.60;99.90
60039;DHT22;45916;52.734;6.544;2023-02-25T06:26:11;3.60;99.90
60039;DHT22;45916;52.734;6.544;2023-02-25T06:28:38;3.50;99.90
60039;DHT22;45916;52.734;6.544;2023-02-25T06:31:23;3.50;99.90
60039;DHT22;45916;52.734;6.544;2023-02-25T06:33:50;3.30;99.90
60039;DHT22;45916;52.734;6.544;2023-02-25T06:36:17;3.20;99.90
60039;DHT22;45916;52.734;6.544;2023-02-25T06:38:44;3.10;99.90
60039;DHT22;45916;52.734;6.544;2023-02-25T06:41:16;3.10;99.90
60039;DHT22;45916;52.734;6.544;2023-02-25T06:43:43;3.10;99.90
60039;DHT22;45916;52.734;6.544;2023-02-25T06:46:11;3.20;99.90
60039;DHT22;45916;52.734;6.544;2023-02-25T06:48:38;3.30;99.90
60039;DHT22;45916;52.734;6.544;2023-02-25T06:51:04;3.40;99.90
60039;DHT22;45916;52.734;6.544;2023-02-25T06:53:35;3.40;99.90
60039;DHT22;45916;52.734;6.544;2023-02-25T06:56:01;3.50;99.90
60039;DHT22;45916;52.734;6.544;2023-02-25T06:58:26;3.50;99.90
60039;DHT22;45916;52.734;6.544;2023-02-25T07:00:52;3.60;99.90
60039;DHT22;45916;52.734;6.544;2023-02-25T07:03:18;3.50;99.90
60039;DHT22;45916;52.734;6.544;2023-02-25T07:05:43;3.60;99.90
60039;DHT22;45916;52.734;6.544;2023-02-25T07:08:09;3.70;99.90
60039;DHT22;45916;52.734;6.544;2023-02-25T07:10:35;3.80;99.90
60039;DHT22;45916;52.734;6.544;2023-02-25T07:13:00;3.80;99.90
60039;DHT22;45916;52.734;6.544;2023-02-25T07:15:26;3.90;99.90
60039;DHT22;45916;52.734;6.544;2023-02-25T07:17:52;3.80;99.90
60039;DHT22;45916;52.734;6.544;2023-02-25T07:20:18;3.90;99.90
60039;DHT22;45916;52.734;6.544;2023-02-25T07:22:43;3.90;99.90
60039;DHT22;45916;52.734;6.544;2023-02-25T07:25:10;4.00;99.90
60039;DHT22;45916;52.734;6.544;2023-02-25T07:27:39;4.10;99.90
60039;DHT22;45916;52.734;6.544;2023-02-25T07:30:06;4.10;99.90
60039;DHT22;45916;52.734;6.544;2023-02-25T07:32:32;4.10;99.90
60039;DHT22;45916;52.734;6.544;2023-02-25T07:34:58;4.20;99.90
60039;DHT22;45916;52.734;6.544;2023-02-25T07:37:23;4.20;99.90
60039;DHT22;45916;52.734;6.544;2023-02-25T07:39:49;4.20;99.90
60039;DHT22;45916;52.734;6.544;2023-02-25T07:42:14;4.20;99.90
60039;DHT22;45916;52.734;6.544;2023-02-25T07:44:40;4.20;99.90
60039;DHT22;45916;52.734;6.544;2023-02-25T07:47:06;4.30;99.90
60039;DHT22;45916;52.734;6.544;2023-02-25T07:49:32;4.30;99.90
60039;DHT22;45916;52.734;6.544;2023-02-25T07:51:57;4.40;99.90
60039;DHT22;45916;52.734;6.544;2023-02-25T07:54:24;4.50;99.90
60039;DHT22;45916;52.734;6.544;2023-02-25T07:56:50;4.60;99.90
60039;DHT22;45916;52.734;6.544;2023-02-25T07:59:16;4.80;99.90
60039;DHT22;45916;52.734;6.544;2023-02-25T08:01:42;4.90;99.90
60039;DHT22;45916;52.734;6.544;2023-02-25T08:04:09;4.90;99.90
60039;DHT22;45916;52.734;6.544;2023-02-25T08:06:36;5.10;99.90
60039;DHT22;45916;52.734;6.544;2023-02-25T08:09:07;5.10;99.90
60039;DHT22;45916;52.734;6.544;2023-02-25T08:11:35;5.30;99.90
60039;DHT22;45916;52.734;6.544;2023-02-25T08:14:01;5.60;99.90
60039;DHT22;45916;52.734;6.544;2023-02-25T08:16:27;5.80;99.90
60039;DHT22;45916;52.734;6.544;2023-02-25T08:18:53;5.90;99.90
60039;DHT22;45916;52.734;6.544;2023-02-25T08:21:20;6.10;99.90
60039;DHT22;45916;52.734;6.544;2023-02-25T08:23:47;6.60;99.90
60039;DHT22;45916;52.734;6.544;2023-02-25T08:26:14;7.90;99.90
60039;DHT22;45916;52.734;6.544;2023-02-25T08:28:43;9.70;99.90
60039;DHT22;45916;52.734;6.544;2023-02-25T08:31:10;11.40;99.90
60039;DHT22;45916;52.734;6.544;2023-02-25T08:33:40;12.50;99.90
60039;DHT22;45916;52.734;6.544;2023-02-25T08:36:13;13.70;99.90
60039;DHT22;45916;52.734;6.544;2023-02-25T08:38:40;14.80;98.00
60039;DHT22;45916;52.734;6.544;2023-02-25T08:41:07;15.70;95.90
60039;DHT22;45916;52.734;6.544;2023-02-25T08:43:34;16.50;85.40
60039;DHT22;45916;52.734;6.544;2023-02-25T08:46:00;17.20;72.00
60039;DHT22;45916;52.734;6.544;2023-02-25T08:48:26;17.70;70.70
60039;DHT22;45916;52.734;6.544;2023-02-25T08:50:52;18.20;66.00
60039;DHT22;45916;52.734;6.544;2023-02-25T08:53:20;18.70;65.00
60039;DHT22;45916;52.734;6.544;2023-02-25T08:55:46;18.80;62.10
60039;DHT22;45916;52.734;6.544;2023-02-25T08:58:12;19.50;60.10
60039;DHT22;45916;52.734;6.544;2023-02-25T09:00:38;20.20;58.40
60039;DHT22;45916;52.734;6.544;2023-02-25T09:03:04;20.60;58.10
60039;DHT22;45916;52.734;6.544;2023-02-25T09:05:30;21.40;58.50
60039;DHT22;45916;52.734;6.544;2023-02-25T09:07:56;22.40;56.50
60039;DHT22;45916;52.734;6.544;2023-02-25T09:10:23;21.90;51.30
60039;DHT22;45916;52.734;6.544;2023-02-25T09:12:49;20.20;51.70
60039;DHT22;45916;52.734;6.544;2023-02-25T09:15:15;17.50;54.00
60039;DHT22;45916;52.734;6.544;2023-02-25T09:17:41;15.80;57.20
60039;DHT22;45916;52.734;6.544;2023-02-25T09:20:07;14.20;60.10
60039;DHT22;45916;52.734;6.544;2023-02-25T09:22:36;12.60;65.60
60039;DHT22;45916;52.734;6.544;2023-02-25T09:25:04;11.50;69.50
60039;DHT22;45916;52.734;6.544;2023-02-25T09:27:30;10.50;77.40
60039;DHT22;45916;52.734;6.544;2023-02-25T09:29:56;9.70;90.40
60039;DHT22;45916;52.734;6.544;2023-02-25T09:32:22;9.10;98.70
60039;DHT22;45916;52.734;6.544;2023-02-25T09:34:48;8.70;99.90
60039;DHT22;45916;52.734;6.544;2023-02-25T09:37:15;8.70;99.90
60039;DHT22;45916;52.734;6.544;2023-02-25T09:39:41;10.00;98.50
60039;DHT22;45916;52.734;6.544;2023-02-25T09:42:10;11.40;88.30
60039;DHT22;45916;52.734;6.544;2023-02-25T09:44:39;13.30;75.90
60039;DHT22;45916;52.734;6.544;2023-02-25T09:50:13;14.90;60.70
60039;DHT22;45916;52.734;6.544;2023-02-25T09:55:37;14.30;54.90
60039;DHT22;45916;52.734;6.544;2023-02-25T09:58:15;13.70;57.90
60039;DHT22;45916;52.734;6.544;2023-02-25T10:06:31;9.80;61.50
60039;DHT22;45916;52.734;6.544;2023-02-25T10:11:49;8.80;68.60
60039;DHT22;45916;52.734;6.544;2023-02-25T10:14:26;10.40;67.20
60039;DHT22;45916;52.734;6.544;2023-02-25T10:24:50;9.50;58.30
60039;DHT22;45916;52.734;6.544;2023-02-25T10:27:37;9.20;63.00
60039;DHT22;45916;52.734;6.544;2023-02-25T10:30:16;8.80;62.70
60039;DHT22;45916;52.734;6.544;2023-02-25T10:32:44;8.70;64.70
60039;DHT22;45916;52.734;6.544;2023-02-25T10:35:24;8.60;66.30
60039;DHT22;45916;52.734;6.544;2023-02-25T10:37:50;11.20;65.00
60039;DHT22;45916;52.734;6.544;2023-02-25T10:40:19;11.40;59.10
60039;DHT22;45916;52.734;6.544;2023-02-25T10:42:47;12.20;59.20
60039;DHT22;45916;52.734;6.544;2023-02-25T10:45:17;12.70;58.80
60039;DHT22;45916;52.734;6.544;2023-02-25T10:47:48;13.90;54.10
60039;DHT22;45916;52.734;6.544;2023-02-25T10:50:25;14.60;56.30
60039;DHT22;45916;52.734;6.544;2023-02-25T10:55:39;13.70;52.70
60039;DHT22;45916;52.734;6.544;2023-02-25T11:01:11;11.40;53.90
60039;DHT22;45916;52.734;6.544;2023-02-25T11:03:44;10.50;54.20
60039;DHT22;45916;52.734;6.544;2023-02-25T11:06:22;9.70;57.60
60039;DHT22;45916;52.734;6.544;2023-02-25T11:08:49;9.70;58.10
60039;DHT22;45916;52.734;6.544;2023-02-25T11:11:27;9.90;57.00
60039;DHT22;45916;52.734;6.544;2023-02-25T11:14:16;9.90;59.10
60039;DHT22;45916;52.734;6.544;2023-02-25T11:16:44;9.90;58.10
60039;DHT22;45916;52.734;6.544;2023-02-25T11:19:21;9.40;51.70
60039;DHT22;45916;52.734;6.544;2023-02-25T11:21:49;9.00;50.80
60039;DHT22;45916;52.734;6.544;2023-02-25T11:24:52;8.70;53.90
60039;DHT22;45916;52.734;6.544;2023-02-25T11:30:01;8.90;54.20
60039;DHT22;45916;52.734;6.544;2023-02-25T11:32:27;9.00;58.20
60039;DHT22;45916;52.734;6.544;2023-02-25T11:34:56;8.90;57.60
60039;DHT22;45916;52.734;6.544;2023-02-25T11:39:54;8.00;53.50
60039;DHT22;45916;52.734;6.544;2023-02-25T11:42:25;8.00;57.10
60039;DHT22;45916;52.734;6.544;2023-02-25T11:44:59;8.00;61.40
60039;DHT22;45916;52.734;6.544;2023-02-25T11:47:28;7.80;55.70
60039;DHT22;45916;52.734;6.544;2023-02-25T12:26:11;7.90;63.20
60039;DHT22;45916;52.734;6.544;2023-02-25T12:29:07;7.90;59.10
60039;DHT22;45916;52.734;6.544;2023-02-25T12:46:25;7.00;58.20
60039;DHT22;45916;52.734;6.544;2023-02-25T12:49:04;6.90;56.00
60039;DHT22;45916;52.734;6.544;2023-02-25T13:03:31;6.60;55.40
60039;DHT22;45916;52.734;6.544;2023-02-25T13:12:32;6.50;60.10
60039;DHT22;45916;52.734;6.544;2023-02-25T13:14:36;6.50;59.10
60039;DHT22;45916;52.734;6.544;2023-02-25T13:17:20;6.50;60.30
60039;DHT22;45916;52.734;6.544;2023-02-25T13:25:54;6.30;59.20
60039;DHT22;45916;52.734;6.544;2023-02-25T13:36:43;6.60;67.00
60039;DHT22;45916;52.734;6.544;2023-02-25T13:50:50;6.80;68.70
60039;DHT22;45916;52.734;6.544;2023-02-25T13:56:25;6.80;68.00
60039;DHT22;45916;52.734;6.544;2023-02-25T14:04:59;6.60;66.40
60039;DHT22;45916;52.734;6.544;2023-02-25T14:18:53;6.00;64.60
60039;DHT22;45916;52.734;6.544;2023-02-25T14:35:17;6.10;64.90
60039;DHT22;45916;52.734;6.544;2023-02-25T14:38:07;6.10;66.40
60039;DHT22;45916;52.734;6.544;2023-02-25T14:40:41;6.10;65.90
60039;DHT22;45916;52.734;6.544;2023-02-25T14:45:49;5.80;68.50
60039;DHT22;45916;52.734;6.544;2023-02-25T14:48:40;5.70;68.30
60039;DHT22;45916;52.734;6.544;2023-02-25T14:51:37;5.80;69.30
60039;DHT22;45916;52.734;6.544;2023-02-25T14:59:36;5.60;68.30
60039;DHT22;45916;52.734;6.544;2023-02-25T15:05:33;5.60;67.10
60039;DHT22;45916;52.734;6.544;2023-02-25T15:11:09;5.40;67.80
60039;DHT22;45916;52.734;6.544;2023-02-25T15:24:44;5.20;71.30
60039;DHT22;45916;52.734;6.544;2023-02-25T15:30:03;5.00;69.50
60039;DHT22;45916;52.734;6.544;2023-02-25T15:43:37;4.90;71.80
60039;DHT22;45916;52.734;6.544;2023-02-25T15:48:36;4.90;73.00
60039;DHT22;45916;52.734;6.544;2023-02-25T15:51:06;4.80;74.00
60039;DHT22;45916;52.734;6.544;2023-02-25T16:01:01;4.50;76.50
60039;DHT22;45916;52.734;6.544;2023-02-25T16:03:46;4.40;73.90
60039;DHT22;45916;52.734;6.544;2023-02-25T16:06:19;4.30;74.50
60039;DHT22;45916;52.734;6.544;2023-02-25T16:08:50;4.30;74.30
60039;DHT22;45916;52.734;6.544;2023-02-25T16:11:46;4.20;74.70
60039;DHT22;45916;52.734;6.544;2023-02-25T16:14:21;4.20;74.90
60039;DHT22;45916;52.734;6.544;2023-02-25T16:17:33;4.10;76.80
60039;DHT22;45916;52.734;6.544;2023-02-25T16:19:55;4.20;79.30
60039;DHT22;45916;52.734;6.544;2023-02-25T16:22:25;4.30;79.50
60039;DHT22;45916;52.734;6.544;2023-02-25T16:24:53;4.60;79.00
60039;DHT22;45916;52.734;6.544;2023-02-25T16:30:20;4.60;82.00
60039;DHT22;45916;52.734;6.544;2023-02-25T16:33:03;4.60;81.50
60039;DHT22;45916;52.734;6.544;2023-02-25T16:38:08;4.60;82.70
60039;DHT22;45916;52.734;6.544;2023-02-25T16:40:38;4.50;83.10
60039;DHT22;45916;52.734;6.544;2023-02-25T16:43:09;4.40;86.20
60039;DHT22;45916;52.734;6.544;2023-02-25T16:45:52;4.40;88.30
60039;DHT22;45916;52.734;6.544;2023-02-25T16:49:09;4.30;91.50
60039;DHT22;45916;52.734;6.544;2023-02-25T16:51:09;4.30;94.70
60039;DHT22;45916;52.734;6.544;2023-02-25T16:53:41;4.20;94.40
60039;DHT22;45916;52.734;6.544;2023-02-25T16:56:23;4.20;96.20
60039;DHT22;45916;52.734;6.544;2023-02-25T17:01:45;4.10;95.80
60039;DHT22;45916;52.734;6.544;2023-02-25T17:04:21;4.10;96.80
60039;DHT22;45916;52.734;6.544;2023-02-25T17:09:32;4.00;99.90
60039;DHT22;45916;52.734;6.544;2023-02-25T17:12:00;3.90;99.90
60039;DHT22;45916;52.734;6.544;2023-02-25T17:14:27;4.00;99.90
60039;DHT22;45916;52.734;6.544;2023-02-25T17:16:54;3.90;99.90
60039;DHT22;45916;52.734;6.544;2023-02-25T17:19:21;3.80;99.90
60039;DHT22;45916;52.734;6.544;2023-02-25T17:21:56;3.70;99.90
60039;DHT22;45916;52.734;6.544;2023-02-25T17:24:28;3.50;99.90
60039;DHT22;45916;52.734;6.544;2023-02-25T17:26:54;3.40;99.90
60039;DHT22;45916;52.734;6.544;2023-02-25T17:29:21;3.20;99.90
60039;DHT22;45916;52.734;6.544;2023-02-25T17:31:49;3.10;99.90
60039;DHT22;45916;52.734;6.544;2023-02-25T17:36:46;2.90;99.90
60039;DHT22;45916;52.734;6.544;2023-02-25T17:39:18;2.90;99.90
60039;DHT22;45916;52.734;6.544;2023-02-25T17:41:45;2.80;99.90
60039;DHT22;45916;52.734;6.544;2023-02-25T17:47:11;2.70;99.90
60039;DHT22;45916;52.734;6.544;2023-02-25T17:49:37;2.60;99.90
60039;DHT22;45916;52.734;6.544;2023-02-25T17:52:05;2.60;99.90
60039;DHT22;45916;52.734;6.544;2023-02-25T17:54:34;2.50;99.90
60039;DHT22;45916;52.734;6.544;2023-02-25T17:57:28;2.50;99.90
60039;DHT22;45916;52.734;6.544;2023-02-25T17:59:55;2.50;99.90
60039;DHT22;45916;52.734;6.544;2023-02-25T18:04:48;2.40;99.90
60039;DHT22;45916;52.734;6.544;2023-02-25T18:07:23;2.30;99.90
60039;DHT22;45916;52.734;6.544;2023-02-25T18:09:56;2.30;99.90
60039;DHT22;45916;52.734;6.544;2023-02-25T18:12:28;2.20;99.90
60039;DHT22;45916;52.734;6.544;2023-02-25T18:15:25;2.30;99.90
60039;DHT22;45916;52.734;6.544;2023-02-25T18:17:57;2.20;99.90
60039;DHT22;45916;52.734;6.544;2023-02-25T18:20:37;2.20;99.90
60039;DHT22;45916;52.734;6.544;2023-02-25T18:23:22;2.30;99.90
60039;DHT22;45916;52.734;6.544;2023-02-25T18:28:39;2.20;99.90
60039;DHT22;45916;52.734;6.544;2023-02-25T18:31:05;2.10;99.90
60039;DHT22;45916;52.734;6.544;2023-02-25T18:33:32;2.10;99.90
60039;DHT22;45916;52.734;6.544;2023-02-25T18:35:58;2.00;99.90
60039;DHT22;45916;52.734;6.544;2023-02-25T18:38:25;2.00;99.90
60039;DHT22;45916;52.734;6.544;2023-02-25T18:40:52;1.90;99.90
60039;DHT22;45916;52.734;6.544;2023-02-25T18:43:24;1.80;99.90
60039;DHT22;45916;52.734;6.544;2023-02-25T18:45:53;1.80;99.90
60039;DHT22;45916;52.734;6.544;2023-02-25T18:48:19;1.80;99.90
60039;DHT22;45916;52.734;6.544;2023-02-25T18:50:45;1.90;99.90
60039;DHT22;45916;52.734;6.544;2023-02-25T18:53:14;1.80;99.90
60039;DHT22;45916;52.734;6.544;2023-02-25T18:55:40;1.90;99.90
60039;DHT22;45916;52.734;6.544;2023-02-25T18:58:11;1.90;99.90
60039;DHT22;45916;52.734;6.544;2023-02-25T19:00:37;1.80;99.90
60039;DHT22;45916;52.734;6.544;2023-02-25T19:03:04;1.80;99.90
60039;DHT22;45916;52.734;6.544;2023-02-25T19:05:30;1.80;99.90
60039;DHT22;45916;52.734;6.544;2023-02-25T19:07:56;2.00;99.90
60039;DHT22;45916;52.734;6.544;2023-02-25T19:10:27;1.90;99.90
60039;DHT22;45916;52.734;6.544;2023-02-25T19:13:01;1.90;99.90
60039;DHT22;45916;52.734;6.544;2023-02-25T19:15:27;1.80;99.90
60039;DHT22;45916;52.734;6.544;2023-02-25T19:17:53;1.70;99.90
60039;DHT22;45916;52.734;6.544;2023-02-25T19:20:19;1.70;99.90
60039;DHT22;45916;52.734;6.544;2023-02-25T19:22:48;1.70;99.90
60039;DHT22;45916;52.734;6.544;2023-02-25T19:25:41;1.70;99.90
60039;DHT22;45916;52.734;6.544;2023-02-25T19:28:08;1.70;99.90
60039;DHT22;45916;52.734;6.544;2023-02-25T19:30:38;1.60;99.90
60039;DHT22;45916;52.734;6.544;2023-02-25T19:33:05;1.50;99.90
60039;DHT22;45916;52.734;6.544;2023-02-25T19:35:33;1.40;99.90
60039;DHT22;45916;52.734;6.544;2023-02-25T19:38:00;1.50;99.90
60039;DHT22;45916;52.734;6.544;2023-02-25T19:40:26;1.50;99.90
60039;DHT22;45916;52.734;6.544;2023-02-25T19:42:53;1.50;99.90
60039;DHT22;45916;52.734;6.544;2023-02-25T19:45:21;1.50;99.90
60039;DHT22;45916;52.734;6.544;2023-02-25T19:47:48;1.40;99.90
60039;DHT22;45916;52.734;6.544;2023-02-25T19:50:22;1.40;99.90
60039;DHT22;45916;52.734;6.544;2023-02-25T19:52:50;1.40;99.90
60039;DHT22;45916;52.734;6.544;2023-02-25T19:55:16;1.40;99.90
60039;DHT22;45916;52.734;6.544;2023-02-25T19:57:42;1.40;99.90
60039;DHT22;45916;52.734;6.544;2023-02-25T20:00:15;1.40;99.90
60039;DHT22;45916;52.734;6.544;2023-02-25T20:02:41;1.40;99.90
60039;DHT22;45916;52.734;6.544;2023-02-25T20:05:07;1.30;99.90
60039;DHT22;45916;52.734;6.544;2023-02-25T20:07:33;1.30;99.90
60039;DHT22;45916;52.734;6.544;2023-02-25T20:09:59;1.20;99.90
60039;DHT22;45916;52.734;6.544;2023-02-25T20:12:25;1.10;99.90
60039;DHT22;45916;52.734;6.544;2023-02-25T20:14:51;0.90;99.90
60039;DHT22;45916;52.734;6.544;2023-02-25T20:17:17;0.90;99.90
60039;DHT22;45916;52.734;6.544;2023-02-25T20:19:42;0.90;99.90